sensor_id;sensor_type;location;lat;lon;timestamp;pressure;altitude;pressure_sealevel;temperature
75822;BMP180;64454;51.984;9.838;2023-02-22T00:01:51;100241.00;;;8.80
75822;BMP180;64454;51.984;9.838;2023-02-22T00:04:35;100239.00;;;8.90
75822;BMP180;64454;51.984;9.838;2023-02-22T00:07:04;100243.00;;;8.70
75822;BMP180;64454;51.984;9.838;2023-02-22T00:09:32;100241.00;;;8.50
75822;BMP180;64454;51.984;9.838;2023-02-22T00:11:58;100236.00;;;8.60
75822;BMP180;64454;51.984;9.838;2023-02-22T00:14:25;100231.00;;;8.80
75822;BMP180;64454;51.984;9.838;2023-02-22T00:16:53;100234.00;;;8.50
75822;BMP180;64454;51.984;9.838;2023-02-22T00:19:23;100228.00;;;8.60
75822;BMP180;64454;51.984;9.838;2023-02-22T00:21:52;100237.00;;;8.70
75822;BMP180;64454;51.984;9.838;2023-02-22T00:24:21;100233.00;;;8.60
75822;BMP180;64454;51.984;9.838;2023-02-22T00:26:51;100220.00;;;8.70
75822;BMP180;64454;51.984;9.838;2023-02-22T00:29:20;100227.00;;;8.50
75822;BMP180;64454;51.984;9.838;2023-02-22T00:31:47;100218.00;;;8.60
75822;BMP180;64454;51.984;9.838;2023-02-22T00:34:15;100213.00;;;8.40
75822;BMP180;64454;51.984;9.838;2023-02-22T00:36:46;100216.00;;;8.50
75822;BMP180;64454;51.984;9.838;2023-02-22T00:39:14;100219.00;;;8.70
75822;BMP180;64454;51.984;9.838;2023-02-22T00:41:42;100217.00;;;8.60
75822;BMP180;64454;51.984;9.838;2023-02-22T00:44:11;100219.00;;;8.50
75822;BMP180;64454;51.984;9.838;2023-02-22T00:46:38;100215.00;;;8.50
75822;BMP180;64454;51.984;9.838;2023-02-22T00:49:05;100215.00;;;8.60
75822;BMP180;64454;51.984;9.838;2023-02-22T00:51:32;100217.00;;;8.40
75822;BMP180;64454;51.984;9.838;2023-02-22T00:53:59;100210.00;;;8.50
75822;BMP180;64454;51.984;9.838;2023-02-22T00:56:26;100211.00;;;8.50
75822;BMP180;64454;51.984;9.838;2023-02-22T00:58:53;100204.00;;;8.50
75822;BMP180;64454;51.984;9.838;2023-02-22T01:01:21;100199.00;;;8.50
75822;BMP180;64454;51.984;9.838;2023-02-22T01:03:48;100200.00;;;8.80
75822;BMP180;64454;51.984;9.838;2023-02-22T01:06:15;100198.00;;;8.50
75822;BMP180;64454;51.984;9.838;2023-02-22T01:08:44;100192.00;;;8.50
75822;BMP180;64454;51.984;9.838;2023-02-22T01:11:11;100196.00;;;8.40
75822;BMP180;64454;51.984;9.838;2023-02-22T01:13:38;100192.00;;;8.50
75822;BMP180;64454;51.984;9.838;2023-02-22T01:16:05;100179.00;;;8.60
75822;BMP180;64454;51.984;9.838;2023-02-22T01:18:34;100181.00;;;8.60
75822;BMP180;64454;51.984;9.838;2023-02-22T01:21:02;100174.00;;;8.60
75822;BMP180;64454;51.984;9.838;2023-02-22T01:23:29;100177.00;;;8.70
75822;BMP180;64454;51.984;9.838;2023-02-22T01:25:57;100177.00;;;8.60
75822;BMP180;64454;51.984;9.838;2023-02-22T01:28:24;100175.00;;;8.60
75822;BMP180;64454;51.984;9.838;2023-02-22T01:30:51;100179.00;;;8.40
75822;BMP180;64454;51.984;9.838;2023-02-22T01:33:20;100178.00;;;8.60
75822;BMP180;64454;51.984;9.838;2023-02-22T01:35:49;100174.00;;;8.40
75822;BMP180;64454;51.984;9.838;2023-02-22T01:38:16;100179.00;;;8.50
75822;BMP180;64454;51.984;9.838;2023-02-22T01:40:48;100175.00;;;8.50
75822;BMP180;64454;51.984;9.838;2023-02-22T01:43:20;100170.00;;;8.60
75822;BMP180;64454;51.984;9.838;2023-02-22T01:45:53;100162.00;;;8.60
75822;BMP180;64454;51.984;9.838;2023-02-22T01:48:28;100165.00;;;8.70
75822;BMP180;64454;51.984;9.838;2023-02-22T01:51:02;100158.00;;;8.60
75822;BMP180;64454;51.984;9.838;2023-02-22T01:53:39;100163.00;;;8.60
75822;BMP180;64454;51.984;9.838;2023-02-22T01:56:07;100154.00;;;8.50
75822;BMP180;64454;51.984;9.838;2023-02-22T01:58:37;100160.00;;;8.70
75822;BMP180;64454;51.984;9.838;2023-02-22T02:01:08;100156.00;;;8.70
75822;BMP180;64454;51.984;9.838;2023-02-22T02:03:38;100152.00;;;8.70
75822;BMP180;64454;51.984;9.838;2023-02-22T02:06:12;100156.00;;;8.50
75822;BMP180;64454;51.984;9.838;2023-02-22T02:08:49;100160.00;;;8.50
75822;BMP180;64454;51.984;9.838;2023-02-22T02:11:21;100155.00;;;8.60
75822;BMP180;64454;51.984;9.838;2023-02-22T02:13:50;100152.00;;;8.70
75822;BMP180;64454;51.984;9.838;2023-02-22T02:16:20;100148.00;;;8.70
75822;BMP180;64454;51.984;9.838;2023-02-22T02:18:47;100148.00;;;8.70
75822;BMP180;64454;51.984;9.838;2023-02-22T02:22:06;100144.00;;;8.60
75822;BMP180;64454;51.984;9.838;2023-02-22T02:25:35;100142.00;;;8.70
75822;BMP180;64454;51.984;9.838;2023-02-22T02:28:47;100144.00;;;8.80
75822;BMP180;64454;51.984;9.838;2023-02-22T02:32:10;100143.00;;;8.50
75822;BMP180;64454;51.984;9.838;2023-02-22T02:34:49;100141.00;;;8.50
75822;BMP180;64454;51.984;9.838;2023-02-22T02:37:29;100145.00;;;8.60
75822;BMP180;64454;51.984;9.838;2023-02-22T02:40:08;100140.00;;;8.60
75822;BMP180;64454;51.984;9.838;2023-02-22T02:42:43;100132.00;;;8.70
75822;BMP180;64454;51.984;9.838;2023-02-22T02:45:18;100135.00;;;8.70
75822;BMP180;64454;51.984;9.838;2023-02-22T02:47:54;100130.00;;;8.80
75822;BMP180;64454;51.984;9.838;2023-02-22T02:50:27;100130.00;;;8.80
75822;BMP180;64454;51.984;9.838;2023-02-22T02:53:00;100127.00;;;8.60
75822;BMP180;64454;51.984;9.838;2023-02-22T02:55:30;100127.00;;;8.40
75822;BMP180;64454;51.984;9.838;2023-02-22T02:57:57;100125.00;;;8.40
75822;BMP180;64454;51.984;9.838;2023-02-22T03:00:31;100121.00;;;8.50
75822;BMP180;64454;51.984;9.838;2023-02-22T03:03:40;100122.00;;;8.50
75822;BMP180;64454;51.984;9.838;2023-02-22T03:06:48;100115.00;;;8.40
75822;BMP180;64454;51.984;9.838;2023-02-22T03:09:34;100112.00;;;8.50
75822;BMP180;64454;51.984;9.838;2023-02-22T03:12:18;100111.00;;;8.50
75822;BMP180;64454;51.984;9.838;2023-02-22T03:15:05;100107.00;;;8.50
75822;BMP180;64454;51.984;9.838;2023-02-22T03:17:46;100099.00;;;8.60
75822;BMP180;64454;51.984;9.838;2023-02-22T03:20:24;100097.00;;;8.60
75822;BMP180;64454;51.984;9.838;2023-02-22T03:23:03;100092.00;;;8.60
75822;BMP180;64454;51.984;9.838;2023-02-22T03:25:36;100095.00;;;8.80
75822;BMP180;64454;51.984;9.838;2023-02-22T03:28:09;100092.00;;;8.80
75822;BMP180;64454;51.984;9.838;2023-02-22T03:30:42;100081.00;;;8.70
75822;BMP180;64454;51.984;9.838;2023-02-22T03:33:16;100083.00;;;8.50
75822;BMP180;64454;51.984;9.838;2023-02-22T03:35:53;100078.00;;;8.70
75822;BMP180;64454;51.984;9.838;2023-02-22T03:38:26;100069.00;;;8.60
75822;BMP180;64454;51.984;9.838;2023-02-22T03:40:58;100074.00;;;8.60
75822;BMP180;64454;51.984;9.838;2023-02-22T03:43:31;100066.00;;;8.70
75822;BMP180;64454;51.984;9.838;2023-02-22T03:46:01;100064.00;;;8.60
75822;BMP180;64454;51.984;9.838;2023-02-22T03:48:37;100062.00;;;8.70
75822;BMP180;64454;51.984;9.838;2023-02-22T03:51:06;100067.00;;;8.60
75822;BMP180;64454;51.984;9.838;2023-02-22T03:53:34;100066.00;;;8.50
75822;BMP180;64454;51.984;9.838;2023-02-22T03:56:04;100060.00;;;8.50
75822;BMP180;64454;51.984;9.838;2023-02-22T03:58:35;100057.00;;;8.20
75822;BMP180;64454;51.984;9.838;2023-02-22T04:01:03;100063.00;;;8.10
75822;BMP180;64454;51.984;9.838;2023-02-22T04:03:30;100062.00;;;8.10
75822;BMP180;64454;51.984;9.838;2023-02-22T04:05:57;100060.00;;;8.10
75822;BMP180;64454;51.984;9.838;2023-02-22T04:08:25;100067.00;;;8.10
75822;BMP180;64454;51.984;9.838;2023-02-22T04:10:52;100060.00;;;8.10
75822;BMP180;64454;51.984;9.838;2023-02-22T04:13:18;100060.00;;;8.10
75822;BMP180;64454;51.984;9.838;2023-02-22T04:15:45;100063.00;;;8.10
75822;BMP180;64454;51.984;9.838;2023-02-22T04:18:12;100062.00;;;8.10
75822;BMP180;64454;51.984;9.838;2023-02-22T04:20:39;100062.00;;;8.00
75822;BMP180;64454;51.984;9.838;2023-02-22T04:23:06;100060.00;;;8.00
75822;BMP180;64454;51.984;9.838;2023-02-22T04:25:34;100065.00;;;8.00
75822;BMP180;64454;51.984;9.838;2023-02-22T04:28:01;100063.00;;;8.20
75822;BMP180;64454;51.984;9.838;2023-02-22T04:30:28;100058.00;;;8.10
75822;BMP180;64454;51.984;9.838;2023-02-22T04:32:55;100056.00;;;8.30
75822;BMP180;64454;51.984;9.838;2023-02-22T04:35:22;100051.00;;;8.40
75822;BMP180;64454;51.984;9.838;2023-02-22T04:37:49;100050.00;;;8.30
75822;BMP180;64454;51.984;9.838;2023-02-22T04:40:17;100056.00;;;8.30
75822;BMP180;64454;51.984;9.838;2023-02-22T04:42:45;100049.00;;;8.50
75822;BMP180;64454;51.984;9.838;2023-02-22T04:45:12;100052.00;;;8.50
75822;BMP180;64454;51.984;9.838;2023-02-22T04:47:39;100048.00;;;8.50
75822;BMP180;64454;51.984;9.838;2023-02-22T04:50:08;100046.00;;;8.80
75822;BMP180;64454;51.984;9.838;2023-02-22T04:52:35;100044.00;;;8.70
75822;BMP180;64454;51.984;9.838;2023-02-22T04:55:02;100047.00;;;8.90
75822;BMP180;64454;51.984;9.838;2023-02-22T04:57:29;100045.00;;;8.70
75822;BMP180;64454;51.984;9.838;2023-02-22T04:59:57;100049.00;;;8.70
75822;BMP180;64454;51.984;9.838;2023-02-22T05:02:24;100046.00;;;8.70
75822;BMP180;64454;51.984;9.838;2023-02-22T05:04:51;100046.00;;;8.90
75822;BMP180;64454;51.984;9.838;2023-02-22T05:07:18;100042.00;;;8.80
75822;BMP180;64454;51.984;9.838;2023-02-22T05:09:45;100041.00;;;8.80
75822;BMP180;64454;51.984;9.838;2023-02-22T05:12:11;100047.00;;;8.80
75822;BMP180;64454;51.984;9.838;2023-02-22T05:14:38;100047.00;;;8.80
75822;BMP180;64454;51.984;9.838;2023-02-22T05:17:07;100038.00;;;8.90
75822;BMP180;64454;51.984;9.838;2023-02-22T05:19:34;100041.00;;;8.90
75822;BMP180;64454;51.984;9.838;2023-02-22T05:22:01;100035.00;;;8.80
75822;BMP180;64454;51.984;9.838;2023-02-22T05:24:30;100034.00;;;8.90
75822;BMP180;64454;51.984;9.838;2023-02-22T05:26:57;100042.00;;;9.00
75822;BMP180;64454;51.984;9.838;2023-02-22T05:29:24;100043.00;;;8.90
75822;BMP180;64454;51.984;9.838;2023-02-22T05:31:50;100038.00;;;8.90
75822;BMP180;64454;51.984;9.838;2023-02-22T05:34:21;100035.00;;;8.80
75822;BMP180;64454;51.984;9.838;2023-02-22T05:36:48;100034.00;;;8.80
75822;BMP180;64454;51.984;9.838;2023-02-22T05:39:17;100034.00;;;8.80
75822;BMP180;64454;51.984;9.838;2023-02-22T05:41:45;100028.00;;;8.90
75822;BMP180;64454;51.984;9.838;2023-02-22T05:44:12;100031.00;;;8.90
75822;BMP180;64454;51.984;9.838;2023-02-22T05:46:38;100028.00;;;8.80
75822;BMP180;64454;51.984;9.838;2023-02-22T05:49:05;100030.00;;;8.80
75822;BMP180;64454;51.984;9.838;2023-02-22T05:51:33;100026.00;;;8.90
75822;BMP180;64454;51.984;9.838;2023-02-22T05:54:00;100032.00;;;8.90
75822;BMP180;64454;51.984;9.838;2023-02-22T05:56:28;100023.00;;;8.90
75822;BMP180;64454;51.984;9.838;2023-02-22T05:58:56;100019.00;;;8.90
75822;BMP180;64454;51.984;9.838;2023-02-22T06:01:23;100014.00;;;8.90
75822;BMP180;64454;51.984;9.838;2023-02-22T06:03:51;100020.00;;;8.90
75822;BMP180;64454;51.984;9.838;2023-02-22T06:06:19;100017.00;;;8.90
75822;BMP180;64454;51.984;9.838;2023-02-22T06:08:48;100012.00;;;9.00
75822;BMP180;64454;51.984;9.838;2023-02-22T06:11:15;100015.00;;;9.00
75822;BMP180;64454;51.984;9.838;2023-02-22T06:13:49;100012.00;;;8.90
75822;BMP180;64454;51.984;9.838;2023-02-22T06:16:16;100021.00;;;9.00
75822;BMP180;64454;51.984;9.838;2023-02-22T06:18:43;100019.00;;;8.90
75822;BMP180;64454;51.984;9.838;2023-02-22T06:21:09;100022.00;;;9.10
75822;BMP180;64454;51.984;9.838;2023-02-22T06:23:36;100020.00;;;9.00
75822;BMP180;64454;51.984;9.838;2023-02-22T06:26:05;100021.00;;;8.90
75822;BMP180;64454;51.984;9.838;2023-02-22T06:28:31;100024.00;;;9.10
75822;BMP180;64454;51.984;9.838;2023-02-22T06:30:58;100019.00;;;9.00
75822;BMP180;64454;51.984;9.838;2023-02-22T06:33:25;100018.00;;;9.10
75822;BMP180;64454;51.984;9.838;2023-02-22T06:35:52;100016.00;;;9.00
75822;BMP180;64454;51.984;9.838;2023-02-22T06:38:22;100014.00;;;8.90
75822;BMP180;64454;51.984;9.838;2023-02-22T06:40:49;100013.00;;;8.90
75822;BMP180;64454;51.984;9.838;2023-02-22T06:43:17;100019.00;;;8.90
75822;BMP180;64454;51.984;9.838;2023-02-22T06:45:44;100020.00;;;9.00
75822;BMP180;64454;51.984;9.838;2023-02-22T06:48:11;100019.00;;;9.00
75822;BMP180;64454;51.984;9.838;2023-02-22T06:50:38;100027.00;;;9.00
75822;BMP180;64454;51.984;9.838;2023-02-22T06:53:05;100023.00;;;9.10
75822;BMP180;64454;51.984;9.838;2023-02-22T06:55:33;100016.00;;;9.10
75822;BMP180;64454;51.984;9.838;2023-02-22T06:58:02;100025.00;;;9.00
75822;BMP180;64454;51.984;9.838;2023-02-22T07:00:31;100032.00;;;9.10
75822;BMP180;64454;51.984;9.838;2023-02-22T07:02:59;100021.00;;;9.20
75822;BMP180;64454;51.984;9.838;2023-02-22T07:05:27;100022.00;;;9.30
75822;BMP180;64454;51.984;9.838;2023-02-22T07:08:01;100027.00;;;9.10
75822;BMP180;64454;51.984;9.838;2023-02-22T07:10:30;100027.00;;;9.20
75822;BMP180;64454;51.984;9.838;2023-02-22T07:12:58;100023.00;;;9.40
75822;BMP180;64454;51.984;9.838;2023-02-22T07:15:27;100027.00;;;9.00
75822;BMP180;64454;51.984;9.838;2023-02-22T07:17:56;100033.00;;;9.10
75822;BMP180;64454;51.984;9.838;2023-02-22T07:20:25;100025.00;;;9.30
75822;BMP180;64454;51.984;9.838;2023-02-22T07:22:52;100038.00;;;9.20
75822;BMP180;64454;51.984;9.838;2023-02-22T07:25:19;100030.00;;;9.20
75822;BMP180;64454;51.984;9.838;2023-02-22T07:27:46;100026.00;;;9.20
75822;BMP180;64454;51.984;9.838;2023-02-22T07:30:19;100030.00;;;9.30
75822;BMP180;64454;51.984;9.838;2023-02-22T07:32:50;100023.00;;;9.30
75822;BMP180;64454;51.984;9.838;2023-02-22T07:35:22;100026.00;;;9.40
75822;BMP180;64454;51.984;9.838;2023-02-22T07:37:49;100019.00;;;9.30
75822;BMP180;64454;51.984;9.838;2023-02-22T07:40:18;100032.00;;;9.30
75822;BMP180;64454;51.984;9.838;2023-02-22T07:42:53;100034.00;;;9.50
75822;BMP180;64454;51.984;9.838;2023-02-22T07:45:22;100031.00;;;9.50
75822;BMP180;64454;51.984;9.838;2023-02-22T07:47:49;100026.00;;;9.80
75822;BMP180;64454;51.984;9.838;2023-02-22T07:50:20;100022.00;;;9.70
75822;BMP180;64454;51.984;9.838;2023-02-22T07:52:50;100026.00;;;9.60
75822;BMP180;64454;51.984;9.838;2023-02-22T07:55:19;100031.00;;;9.70
75822;BMP180;64454;51.984;9.838;2023-02-22T07:57:48;100024.00;;;9.60
75822;BMP180;64454;51.984;9.838;2023-02-22T08:00:21;100023.00;;;9.50
75822;BMP180;64454;51.984;9.838;2023-02-22T08:02:48;100024.00;;;9.60
75822;BMP180;64454;51.984;9.838;2023-02-22T08:05:15;100018.00;;;9.70
75822;BMP180;64454;51.984;9.838;2023-02-22T08:07:44;100017.00;;;9.70
75822;BMP180;64454;51.984;9.838;2023-02-22T08:10:14;100013.00;;;9.70
75822;BMP180;64454;51.984;9.838;2023-02-22T08:12:41;100019.00;;;9.70
75822;BMP180;64454;51.984;9.838;2023-02-22T08:15:16;100017.00;;;9.60
75822;BMP180;64454;51.984;9.838;2023-02-22T08:17:43;100015.00;;;9.70
75822;BMP180;64454;51.984;9.838;2023-02-22T08:20:10;100025.00;;;9.60
75822;BMP180;64454;51.984;9.838;2023-02-22T08:22:37;100018.00;;;9.60
75822;BMP180;64454;51.984;9.838;2023-02-22T08:25:06;100016.00;;;9.80
75822;BMP180;64454;51.984;9.838;2023-02-22T08:27:33;100021.00;;;9.90
75822;BMP180;64454;51.984;9.838;2023-02-22T08:30:00;100018.00;;;9.90
75822;BMP180;64454;51.984;9.838;2023-02-22T08:32:27;100012.00;;;9.90
75822;BMP180;64454;51.984;9.838;2023-02-22T08:34:53;100015.00;;;10.00
75822;BMP180;64454;51.984;9.838;2023-02-22T08:37:20;100016.00;;;9.80
75822;BMP180;64454;51.984;9.838;2023-02-22T08:39:47;100004.00;;;10.00
75822;BMP180;64454;51.984;9.838;2023-02-22T08:42:15;100003.00;;;9.90
75822;BMP180;64454;51.984;9.838;2023-02-22T08:44:42;100007.00;;;9.90
75822;BMP180;64454;51.984;9.838;2023-02-22T08:47:09;100005.00;;;9.80
75822;BMP180;64454;51.984;9.838;2023-02-22T08:49:36;100001.00;;;9.90
75822;BMP180;64454;51.984;9.838;2023-02-22T08:52:03;100008.00;;;10.00
75822;BMP180;64454;51.984;9.838;2023-02-22T08:54:30;99996.00;;;10.00
75822;BMP180;64454;51.984;9.838;2023-02-22T08:56:56;100004.00;;;10.00
75822;BMP180;64454;51.984;9.838;2023-02-22T08:59:25;99995.00;;;10.00
75822;BMP180;64454;51.984;9.838;2023-02-22T09:01:51;99980.00;;;10.90
75822;BMP180;64454;51.984;9.838;2023-02-22T09:04:20;99991.00;;;11.00
75822;BMP180;64454;51.984;9.838;2023-02-22T09:06:47;99984.00;;;11.10
75822;BMP180;64454;51.984;9.838;2023-02-22T09:09:18;99981.00;;;10.90
75822;BMP180;64454;51.984;9.838;2023-02-22T09:11:46;99983.00;;;11.40
75822;BMP180;64454;51.984;9.838;2023-02-22T09:14:14;99983.00;;;10.70
75822;BMP180;64454;51.984;9.838;2023-02-22T09:16:44;99981.00;;;11.10
75822;BMP180;64454;51.984;9.838;2023-02-22T09:19:11;99977.00;;;10.90
75822;BMP180;64454;51.984;9.838;2023-02-22T09:21:38;99978.00;;;11.00
75822;BMP180;64454;51.984;9.838;2023-02-22T09:24:06;99976.00;;;11.20
75822;BMP180;64454;51.984;9.838;2023-02-22T09:26:34;99986.00;;;10.70
75822;BMP180;64454;51.984;9.838;2023-02-22T09:29:05;99987.00;;;10.80
75822;BMP180;64454;51.984;9.838;2023-02-22T09:31:35;99977.00;;;11.10
75822;BMP180;64454;51.984;9.838;2023-02-22T09:34:05;99979.00;;;11.10
75822;BMP180;64454;51.984;9.838;2023-02-22T09:36:39;99985.00;;;10.80
75822;BMP180;64454;51.984;9.838;2023-02-22T09:39:06;99988.00;;;10.90
75822;BMP180;64454;51.984;9.838;2023-02-22T09:41:40;99975.00;;;11.30
75822;BMP180;64454;51.984;9.838;2023-02-22T09:44:19;99973.00;;;11.20
75822;BMP180;64454;51.984;9.838;2023-02-22T09:46:49;99970.00;;;11.50
75822;BMP180;64454;51.984;9.838;2023-02-22T09:49:27;99962.00;;;11.20
75822;BMP180;64454;51.984;9.838;2023-02-22T09:52:03;99971.00;;;11.30
75822;BMP180;64454;51.984;9.838;2023-02-22T09:54:37;99970.00;;;11.10
75822;BMP180;64454;51.984;9.838;2023-02-22T09:57:08;99974.00;;;10.90
75822;BMP180;64454;51.984;9.838;2023-02-22T09:59:41;99963.00;;;11.00
75822;BMP180;64454;51.984;9.838;2023-02-22T10:02:24;99954.00;;;11.10
75822;BMP180;64454;51.984;9.838;2023-02-22T10:04:59;99961.00;;;10.90
75822;BMP180;64454;51.984;9.838;2023-02-22T10:07:36;99963.00;;;11.10
75822;BMP180;64454;51.984;9.838;2023-02-22T10:10:05;99952.00;;;11.60
75822;BMP180;64454;51.984;9.838;2023-02-22T10:12:48;99954.00;;;12.10
75822;BMP180;64454;51.984;9.838;2023-02-22T10:15:41;99950.00;;;12.00
75822;BMP180;64454;51.984;9.838;2023-02-22T10:18:39;99958.00;;;11.80
75822;BMP180;64454;51.984;9.838;2023-02-22T10:21:23;99948.00;;;11.30
75822;BMP180;64454;51.984;9.838;2023-02-22T10:24:05;99941.00;;;11.90
75822;BMP180;64454;51.984;9.838;2023-02-22T10:26:41;99956.00;;;11.90
75822;BMP180;64454;51.984;9.838;2023-02-22T10:29:18;99949.00;;;11.80
75822;BMP180;64454;51.984;9.838;2023-02-22T10:31:56;99947.00;;;11.90
75822;BMP180;64454;51.984;9.838;2023-02-22T10:34:27;99933.00;;;12.30
75822;BMP180;64454;51.984;9.838;2023-02-22T10:37:18;99931.00;;;13.20
75822;BMP180;64454;51.984;9.838;2023-02-22T10:39:49;99933.00;;;13.70
75822;BMP180;64454;51.984;9.838;2023-02-22T10:42:20;99938.00;;;13.10
75822;BMP180;64454;51.984;9.838;2023-02-22T10:44:49;99927.00;;;13.60
75822;BMP180;64454;51.984;9.838;2023-02-22T10:47:17;99921.00;;;14.00
75822;BMP180;64454;51.984;9.838;2023-02-22T10:49:48;99907.00;;;13.80
75822;BMP180;64454;51.984;9.838;2023-02-22T10:52:24;99906.00;;;14.20
75822;BMP180;64454;51.984;9.838;2023-02-22T10:54:55;99904.00;;;15.00
75822;BMP180;64454;51.984;9.838;2023-02-22T10:57:26;99898.00;;;14.80
75822;BMP180;64454;51.984;9.838;2023-02-22T10:59:54;99895.00;;;15.00
75822;BMP180;64454;51.984;9.838;2023-02-22T11:02:28;99891.00;;;15.40
75822;BMP180;64454;51.984;9.838;2023-02-22T11:04:59;99889.00;;;14.40
75822;BMP180;64454;51.984;9.838;2023-02-22T11:07:30;99884.00;;;15.10
75822;BMP180;64454;51.984;9.838;2023-02-22T11:10:00;99877.00;;;15.90
75822;BMP180;64454;51.984;9.838;2023-02-22T11:12:32;99874.00;;;14.50
75822;BMP180;64454;51.984;9.838;2023-02-22T11:15:27;99872.00;;;15.60
75822;BMP180;64454;51.984;9.838;2023-02-22T11:17:56;99870.00;;;15.90
75822;BMP180;64454;51.984;9.838;2023-02-22T11:20:29;99873.00;;;15.30
75822;BMP180;64454;51.984;9.838;2023-02-22T11:23:03;99865.00;;;15.70
75822;BMP180;64454;51.984;9.838;2023-02-22T11:25:35;99865.00;;;15.60
75822;BMP180;64454;51.984;9.838;2023-02-22T11:28:08;99863.00;;;15.80
75822;BMP180;64454;51.984;9.838;2023-02-22T11:30:40;99866.00;;;15.80
75822;BMP180;64454;51.984;9.838;2023-02-22T11:33:17;99862.00;;;16.10
75822;BMP180;64454;51.984;9.838;2023-02-22T11:35:50;99867.00;;;15.60
75822;BMP180;64454;51.984;9.838;2023-02-22T11:38:22;99860.00;;;15.30
75822;BMP180;64454;51.984;9.838;2023-02-22T11:41:13;99866.00;;;15.30
75822;BMP180;64454;51.984;9.838;2023-02-22T11:43:40;99861.00;;;15.00
75822;BMP180;64454;51.984;9.838;2023-02-22T11:46:13;99853.00;;;15.30
75822;BMP180;64454;51.984;9.838;2023-02-22T11:48:55;99849.00;;;15.30
75822;BMP180;64454;51.984;9.838;2023-02-22T11:51:43;99848.00;;;15.50
75822;BMP180;64454;51.984;9.838;2023-02-22T11:54:36;99844.00;;;15.10
75822;BMP180;64454;51.984;9.838;2023-02-22T11:57:17;99842.00;;;15.50
75822;BMP180;64454;51.984;9.838;2023-02-22T12:00:04;99838.00;;;15.50
75822;BMP180;64454;51.984;9.838;2023-02-22T12:03:08;99844.00;;;15.50
75822;BMP180;64454;51.984;9.838;2023-02-22T12:06:08;99839.00;;;16.40
75822;BMP180;64454;51.984;9.838;2023-02-22T12:08:51;99827.00;;;16.40
75822;BMP180;64454;51.984;9.838;2023-02-22T12:11:31;99822.00;;;16.50
75822;BMP180;64454;51.984;9.838;2023-02-22T12:14:20;99829.00;;;15.80
75822;BMP180;64454;51.984;9.838;2023-02-22T12:17:06;99831.00;;;15.80
75822;BMP180;64454;51.984;9.838;2023-02-22T12:19:38;99826.00;;;15.40
75822;BMP180;64454;51.984;9.838;2023-02-22T12:22:15;99826.00;;;15.80
75822;BMP180;64454;51.984;9.838;2023-02-22T12:24:46;99826.00;;;15.10
75822;BMP180;64454;51.984;9.838;2023-02-22T12:27:23;99826.00;;;15.30
75822;BMP180;64454;51.984;9.838;2023-02-22T12:29:57;99831.00;;;15.30
75822;BMP180;64454;51.984;9.838;2023-02-22T12:32:34;99828.00;;;15.00
75822;BMP180;64454;51.984;9.838;2023-02-22T12:35:15;99825.00;;;15.50
75822;BMP180;64454;51.984;9.838;2023-02-22T12:37:59;99824.00;;;15.00
75822;BMP180;64454;51.984;9.838;2023-02-22T12:40:34;99822.00;;;15.10
75822;BMP180;64454;51.984;9.838;2023-02-22T12:43:12;99826.00;;;15.00
75822;BMP180;64454;51.984;9.838;2023-02-22T12:45:47;99817.00;;;14.80
75822;BMP180;64454;51.984;9.838;2023-02-22T12:48:30;99822.00;;;14.90
75822;BMP180;64454;51.984;9.838;2023-02-22T12:51:14;99809.00;;;15.00
75822;BMP180;64454;51.984;9.838;2023-02-22T12:53:54;99807.00;;;15.80
75822;BMP180;64454;51.984;9.838;2023-02-22T12:56:30;99798.00;;;16.40
75822;BMP180;64454;51.984;9.838;2023-02-22T12:59:07;99791.00;;;16.60
75822;BMP180;64454;51.984;9.838;2023-02-22T13:01:41;99792.00;;;16.70
75822;BMP180;64454;51.984;9.838;2023-02-22T13:04:10;99788.00;;;16.80
75822;BMP180;64454;51.984;9.838;2023-02-22T13:09:54;99783.00;;;16.20
75822;BMP180;64454;51.984;9.838;2023-02-22T13:12:34;99788.00;;;17.00
75822;BMP180;64454;51.984;9.838;2023-02-22T13:15:14;99778.00;;;16.10
75822;BMP180;64454;51.984;9.838;2023-02-22T13:17:55;99781.00;;;17.00
75822;BMP180;64454;51.984;9.838;2023-02-22T13:20:29;99778.00;;;16.70
75822;BMP180;64454;51.984;9.838;2023-02-22T13:23:03;99768.00;;;16.50
75822;BMP180;64454;51.984;9.838;2023-02-22T13:25:40;99778.00;;;16.30
75822;BMP180;64454;51.984;9.838;2023-02-22T13:28:21;99767.00;;;15.70
75822;BMP180;64454;51.984;9.838;2023-02-22T13:31:10;99758.00;;;15.80
75822;BMP180;64454;51.984;9.838;2023-02-22T13:33:58;99761.00;;;15.90
75822;BMP180;64454;51.984;9.838;2023-02-22T13:36:36;99761.00;;;16.30
75822;BMP180;64454;51.984;9.838;2023-02-22T13:39:37;99766.00;;;17.00
75822;BMP180;64454;51.984;9.838;2023-02-22T13:42:42;99750.00;;;16.70
75822;BMP180;64454;51.984;9.838;2023-02-22T13:45:44;99745.00;;;17.80
75822;BMP180;64454;51.984;9.838;2023-02-22T13:48:40;99750.00;;;16.50
75822;BMP180;64454;51.984;9.838;2023-02-22T13:51:40;99741.00;;;16.40
75822;BMP180;64454;51.984;9.838;2023-02-22T13:54:20;99752.00;;;15.80
75822;BMP180;64454;51.984;9.838;2023-02-22T13:56:50;99752.00;;;16.20
75822;BMP180;64454;51.984;9.838;2023-02-22T13:59:27;99748.00;;;16.00
75822;BMP180;64454;51.984;9.838;2023-02-22T14:01:55;99754.00;;;15.80
75822;BMP180;64454;51.984;9.838;2023-02-22T14:04:37;99749.00;;;16.50
75822;BMP180;64454;51.984;9.838;2023-02-22T14:07:53;99741.00;;;16.30
75822;BMP180;64454;51.984;9.838;2023-02-22T14:10:47;99726.00;;;16.20
75822;BMP180;64454;51.984;9.838;2023-02-22T14:13:16;99726.00;;;17.10
75822;BMP180;64454;51.984;9.838;2023-02-22T14:16:23;99724.00;;;18.00
75822;BMP180;64454;51.984;9.838;2023-02-22T14:19:03;99715.00;;;18.20
75822;BMP180;64454;51.984;9.838;2023-02-22T14:21:33;99720.00;;;17.50
75822;BMP180;64454;51.984;9.838;2023-02-22T14:24:15;99724.00;;;16.90
75822;BMP180;64454;51.984;9.838;2023-02-22T14:26:56;99726.00;;;16.90
75822;BMP180;64454;51.984;9.838;2023-02-22T14:29:23;99728.00;;;16.30
75822;BMP180;64454;51.984;9.838;2023-02-22T14:32:02;99734.00;;;16.10
75822;BMP180;64454;51.984;9.838;2023-02-22T14:34:42;99725.00;;;16.10
75822;BMP180;64454;51.984;9.838;2023-02-22T14:37:16;99726.00;;;16.00
75822;BMP180;64454;51.984;9.838;2023-02-22T14:39:47;99720.00;;;15.80
75822;BMP180;64454;51.984;9.838;2023-02-22T14:42:22;99721.00;;;16.20
75822;BMP180;64454;51.984;9.838;2023-02-22T14:44:58;99723.00;;;16.20
75822;BMP180;64454;51.984;9.838;2023-02-22T14:47:31;99720.00;;;16.10